createdAt,value
2023-03-15T00:00:07.649Z,97664.00
2023-03-15T00:00:17.651Z,97660.00
2023-03-15T00:00:27.677Z,97662.00
2023-03-15T00:00:37.672Z,97662.00
2023-03-15T00:00:47.679Z,97660.00
2023-03-15T00:00:57.685Z,97660.00
2023-03-15T00:01:07.688Z,97662.00
2023-03-15T00:01:17.700Z,97660.00
2023-03-15T00:01:27.720Z,97660.00
2023-03-15T00:01:37.708Z,97660.00
2023-03-15T00:01:47.828Z,97666.00
2023-03-15T00:01:57.826Z,97668.00
2023-03-15T00:02:07.877Z,97666.00
2023-03-15T00:02:17.961Z,97664.00
2023-03-15T00:02:28.056Z,97666.00
2023-03-15T00:02:38.419Z,97668.00
2023-03-15T00:02:48.453Z,97666.00
2023-03-15T00:02:58.465Z,97664.00
2023-03-15T00:03:08.465Z,97664.00
2023-03-15T00:03:18.524Z,97666.00
2023-03-15T00:03:28.661Z,97668.00
2023-03-15T00:03:38.697Z,97668.00
2023-03-15T00:03:48.764Z,97670.00
2023-03-15T00:03:58.842Z,97668.00
2023-03-15T00:04:08.831Z,97664.00
2023-03-15T00:04:19.112Z,97666.00
2023-03-15T00:04:29.105Z,97664.00
2023-03-15T00:04:39.113Z,97660.00
2023-03-15T00:04:49.150Z,97660.00
2023-03-15T00:04:59.162Z,97662.00
2023-03-15T00:05:09.289Z,97660.00
2023-03-15T00:05:19.292Z,97660.00
2023-03-15T00:05:29.328Z,97660.00
2023-03-15T00:05:39.334Z,97660.00
2023-03-15T00:05:49.330Z,97662.00
2023-03-15T00:05:59.597Z,97666.00
2023-03-15T00:06:09.596Z,97666.00
2023-03-15T00:06:19.600Z,97666.00
2023-03-15T00:06:29.611Z,97668.00
2023-03-15T00:06:39.627Z,97666.00
2023-03-15T00:06:49.638Z,97668.00
2023-03-15T00:06:59.649Z,97668.00
2023-03-15T00:07:09.662Z,97670.00
2023-03-15T00:07:19.665Z,97668.00
2023-03-15T00:07:29.687Z,97670.00
2023-03-15T00:07:39.721Z,97668.00
2023-03-15T00:07:49.733Z,97670.00
2023-03-15T00:07:59.735Z,97674.00
2023-03-15T00:08:09.754Z,97674.00
2023-03-15T00:08:19.756Z,97676.00
2023-03-15T00:08:29.778Z,97677.00
2023-03-15T00:08:39.773Z,97679.00
2023-03-15T00:08:49.789Z,97681.00
2023-03-15T00:08:59.795Z,97685.00
2023-03-15T00:09:09.813Z,97685.00
2023-03-15T00:09:19.814Z,97679.00
2023-03-15T00:09:29.831Z,97677.00
2023-03-15T00:09:39.838Z,97681.00
2023-03-15T00:09:49.854Z,97681.00
2023-03-15T00:09:59.855Z,97689.00
2023-03-15T00:10:09.873Z,97691.00
2023-03-15T00:10:19.992Z,97693.00
2023-03-15T00:10:29.987Z,97689.00
2023-03-15T00:10:39.995Z,97693.00
2023-03-15T00:10:50.004Z,97685.00
2023-03-15T00:11:00.013Z,97689.00
2023-03-15T00:11:10.278Z,97687.00
2023-03-15T00:11:20.400Z,97703.00
2023-03-15T00:11:30.413Z,97705.00
2023-03-15T00:11:40.678Z,97701.00
2023-03-15T00:11:50.690Z,97695.00
2023-03-15T00:12:00.692Z,97695.00
2023-03-15T00:12:10.699Z,97697.00
2023-03-15T00:12:20.827Z,97699.00
2023-03-15T00:12:30.830Z,97699.00
2023-03-15T00:12:40.835Z,97701.00
2023-03-15T00:12:50.841Z,97697.00
2023-03-15T00:13:00.845Z,97697.00
2023-03-15T00:13:10.864Z,97701.00
2023-03-15T00:13:21.117Z,97697.00
2023-03-15T00:13:31.126Z,97691.00
2023-03-15T00:13:41.137Z,97691.00
2023-03-15T00:13:51.157Z,97691.00
2023-03-15T00:14:01.172Z,97695.00
2023-03-15T00:14:11.195Z,97695.00
2023-03-15T00:14:21.184Z,97697.00
2023-03-15T00:14:31.192Z,97693.00
2023-03-15T00:14:41.194Z,97691.00
2023-03-15T00:14:51.213Z,97693.00
2023-03-15T00:15:01.220Z,97695.00
2023-03-15T00:15:11.229Z,97699.00
2023-03-15T00:15:21.243Z,97697.00
2023-03-15T00:15:31.272Z,97695.00
2023-03-15T00:15:41.308Z,97699.00
2023-03-15T00:15:51.348Z,97699.00
2023-03-15T00:16:01.408Z,97695.00
2023-03-15T00:16:11.579Z,97695.00
2023-03-15T00:16:21.542Z,97695.00
2023-03-15T00:16:31.542Z,97705.00
2023-03-15T00:16:41.560Z,97699.00
2023-03-15T00:16:51.691Z,97697.00
2023-03-15T00:17:01.711Z,97701.00
2023-03-15T00:17:11.746Z,97701.00
2023-03-15T00:17:22.151Z,97701.00
2023-03-15T00:17:32.155Z,97693.00
2023-03-15T00:17:42.151Z,97699.00
2023-03-15T00:17:52.166Z,97697.00
2023-03-15T00:18:02.204Z,97711.00
2023-03-15T00:18:12.224Z,97703.00
2023-03-15T00:18:22.219Z,97697.00
2023-03-15T00:18:32.242Z,97703.00
2023-03-15T00:18:42.246Z,97703.00
2023-03-15T00:18:52.282Z,97703.00
2023-03-15T00:19:02.275Z,97711.00
2023-03-15T00:19:12.304Z,97713.00
2023-03-15T00:19:22.339Z,97707.00
2023-03-15T00:19:32.336Z,97715.00
2023-03-15T00:19:42.350Z,97713.00
2023-03-15T00:19:52.349Z,97703.00
2023-03-15T00:20:02.363Z,97703.00
2023-03-15T00:20:12.379Z,97703.00
2023-03-15T00:20:22.387Z,97707.00
2023-03-15T00:20:32.388Z,97709.00
2023-03-15T00:20:42.398Z,97709.00
2023-03-15T00:20:52.444Z,97715.00
2023-03-15T00:21:02.544Z,97709.00
2023-03-15T00:21:12.552Z,97707.00
2023-03-15T00:21:22.802Z,97707.00
2023-03-15T00:21:32.806Z,97709.00
2023-03-15T00:21:42.814Z,97707.00
2023-03-15T00:21:52.838Z,97707.00
2023-03-15T00:22:02.841Z,97709.00
2023-03-15T00:22:12.847Z,97711.00
2023-03-15T00:22:22.849Z,97707.00
2023-03-15T00:22:32.869Z,97707.00
2023-03-15T00:22:42.880Z,97709.00
2023-03-15T00:22:52.886Z,97705.00
2023-03-15T00:23:02.893Z,97709.00
2023-03-15T00:23:12.909Z,97711.00
2023-03-15T00:23:22.963Z,97707.00
2023-03-15T00:23:32.963Z,97711.00
2023-03-15T00:23:42.969Z,97709.00
2023-03-15T00:23:52.981Z,97713.00
2023-03-15T00:24:02.987Z,97713.00
2023-03-15T00:24:12.994Z,97713.00
2023-03-15T00:24:25.092Z,97709.00
2023-03-15T00:24:33.088Z,97715.00
2023-03-15T00:24:43.104Z,97715.00
2023-03-15T00:24:53.103Z,97715.00
2023-03-15T00:25:03.108Z,97713.00
2023-03-15T00:25:13.121Z,97709.00
2023-03-15T00:25:23.137Z,97711.00
2023-03-15T00:25:33.144Z,97713.00
2023-03-15T00:25:43.148Z,97711.00
2023-03-15T00:25:53.169Z,97711.00
2023-03-15T00:26:03.177Z,97709.00
2023-03-15T00:26:13.185Z,97709.00
2023-03-15T00:26:23.184Z,97711.00
2023-03-15T00:26:33.218Z,97713.00
2023-03-15T00:26:43.245Z,97713.00
2023-03-15T00:26:53.270Z,97709.00
2023-03-15T00:27:03.288Z,97711.00
2023-03-15T00:27:13.290Z,97723.00
2023-03-15T00:27:23.296Z,97713.00
2023-03-15T00:27:33.307Z,97711.00
2023-03-15T00:27:43.328Z,97707.00
2023-03-15T00:27:53.328Z,97713.00
2023-03-15T00:28:03.333Z,97727.00
2023-03-15T00:28:13.344Z,97727.00
2023-03-15T00:28:23.361Z,97725.00
2023-03-15T00:28:33.354Z,97715.00
2023-03-15T00:28:43.480Z,97711.00
2023-03-15T00:28:53.743Z,97709.00
2023-03-15T00:29:03.854Z,97711.00
2023-03-15T00:29:13.872Z,97713.00
2023-03-15T00:29:24.134Z,97727.00
2023-03-15T00:29:34.139Z,97715.00
2023-03-15T00:29:44.172Z,97715.00
2023-03-15T00:29:54.179Z,97713.00
2023-03-15T00:30:04.300Z,97713.00
2023-03-15T00:30:14.304Z,97723.00
2023-03-15T00:30:24.303Z,97725.00
2023-03-15T00:30:34.326Z,97727.00
2023-03-15T00:30:44.438Z,97729.00
2023-03-15T00:30:54.465Z,97729.00
2023-03-15T00:31:04.652Z,97729.00
2023-03-15T00:31:14.825Z,97733.00
2023-03-15T00:31:24.791Z,97731.00
2023-03-15T00:31:34.835Z,97731.00
2023-03-15T00:31:44.841Z,97733.00
2023-03-15T00:31:54.855Z,97735.00
2023-03-15T00:32:04.869Z,97735.00
2023-03-15T00:32:14.879Z,97735.00
2023-03-15T00:32:25.025Z,97731.00
2023-03-15T00:32:35.031Z,97735.00
2023-03-15T00:32:45.362Z,97733.00
2023-03-15T00:32:55.476Z,97737.00
2023-03-15T00:33:05.405Z,97742.00
2023-03-15T00:33:15.411Z,97737.00
2023-03-15T00:33:25.416Z,97740.00
2023-03-15T00:33:35.422Z,97742.00
2023-03-15T00:33:45.427Z,97742.00
2023-03-15T00:33:55.462Z,97737.00
2023-03-15T00:34:05.454Z,97738.00
2023-03-15T00:34:15.461Z,97738.00
2023-03-15T00:34:25.488Z,97740.00
2023-03-15T00:34:35.511Z,97748.00
2023-03-15T00:34:45.526Z,97746.00
2023-03-15T00:34:55.544Z,97746.00
2023-03-15T00:35:05.544Z,97748.00
2023-03-15T00:35:15.558Z,97748.00
2023-03-15T00:35:25.562Z,97744.00
2023-03-15T00:35:35.588Z,97744.00
2023-03-15T00:35:45.752Z,97748.00
2023-03-15T00:35:55.766Z,97748.00
2023-03-15T00:36:05.887Z,97748.00
2023-03-15T00:36:15.813Z,97742.00
2023-03-15T00:36:25.818Z,97746.00
2023-03-15T00:36:35.831Z,97748.00
2023-03-15T00:36:46.085Z,97746.00
2023-03-15T00:36:56.094Z,97746.00
2023-03-15T00:37:06.111Z,97748.00
2023-03-15T00:37:16.110Z,97748.00
2023-03-15T00:37:26.119Z,97754.00
2023-03-15T00:37:36.124Z,97754.00
2023-03-15T00:37:46.125Z,97752.00
2023-03-15T00:37:56.135Z,97748.00
2023-03-15T00:38:06.141Z,97754.00
2023-03-15T00:38:16.156Z,97754.00
2023-03-15T00:38:26.155Z,97756.00
2023-03-15T00:38:36.160Z,97746.00
2023-03-15T00:38:46.291Z,97756.00
2023-03-15T00:38:56.294Z,97758.00
2023-03-15T00:39:06.293Z,97748.00
2023-03-15T00:39:16.296Z,97756.00
2023-03-15T00:39:26.312Z,97752.00
2023-03-15T00:39:36.565Z,97752.00
2023-03-15T00:39:46.705Z,97758.00
2023-03-15T00:39:56.710Z,97762.00
2023-03-15T00:40:06.971Z,97758.00
2023-03-15T00:40:16.989Z,97750.00
2023-03-15T00:40:27.085Z,97750.00
2023-03-15T00:40:37.366Z,97756.00
2023-03-15T00:40:47.356Z,97760.00
2023-03-15T00:40:57.345Z,97754.00
2023-03-15T00:41:07.730Z,97762.00
2023-03-15T00:41:17.726Z,97756.00
2023-03-15T00:41:27.865Z,97752.00
2023-03-15T00:41:38.132Z,97750.00
2023-03-15T00:41:48.146Z,97756.00
2023-03-15T00:41:58.165Z,97762.00
2023-03-15T00:42:08.160Z,97762.00
2023-03-15T00:42:18.170Z,97764.00
2023-03-15T00:42:28.180Z,97760.00
2023-03-15T00:42:38.194Z,97756.00
2023-03-15T00:42:48.199Z,97752.00
2023-03-15T00:42:58.215Z,97754.00
2023-03-15T00:43:08.217Z,97758.00
2023-03-15T00:43:18.234Z,97760.00
2023-03-15T00:43:28.277Z,97754.00
2023-03-15T00:43:38.274Z,97756.00
2023-03-15T00:43:48.404Z,97758.00
2023-03-15T00:43:58.397Z,97756.00
2023-03-15T00:44:08.420Z,97756.00
2023-03-15T00:44:18.409Z,97758.00
2023-03-15T00:44:28.681Z,97760.00
2023-03-15T00:44:38.684Z,97758.00
2023-03-15T00:44:48.688Z,97758.00
2023-03-15T00:44:58.700Z,97760.00
2023-03-15T00:45:08.743Z,97762.00
2023-03-15T00:45:18.726Z,97768.00
2023-03-15T00:45:28.733Z,97766.00
2023-03-15T00:45:38.745Z,97762.00
2023-03-15T00:45:48.873Z,97764.00
2023-03-15T00:45:58.898Z,97770.00
2023-03-15T00:46:09.230Z,97762.00
2023-03-15T00:46:19.326Z,97754.00
2023-03-15T00:46:29.383Z,97758.00
2023-03-15T00:46:39.800Z,97756.00
2023-03-15T00:46:49.811Z,97764.00
2023-03-15T00:46:59.747Z,97760.00
2023-03-15T00:47:09.763Z,97764.00
2023-03-15T00:47:19.817Z,97758.00
2023-03-15T00:47:29.833Z,97756.00
2023-03-15T00:47:39.832Z,97758.00
2023-03-15T00:47:49.954Z,97760.00
2023-03-15T00:47:59.966Z,97760.00
2023-03-15T00:48:09.978Z,97756.00
2023-03-15T00:48:20.248Z,97760.00
2023-03-15T00:48:30.262Z,97760.00
2023-03-15T00:48:40.385Z,97764.00
2023-03-15T00:48:50.629Z,97766.00
2023-03-15T00:49:00.648Z,97762.00
2023-03-15T00:49:10.683Z,97762.00
2023-03-15T00:49:20.686Z,97766.00
2023-03-15T00:49:30.722Z,97772.00
2023-03-15T00:49:40.713Z,97766.00
2023-03-15T00:49:50.787Z,97766.00
2023-03-15T00:50:00.799Z,97766.00
2023-03-15T00:50:10.804Z,97768.00
2023-03-15T00:50:20.813Z,97770.00
2023-03-15T00:50:30.823Z,97766.00
2023-03-15T00:50:40.838Z,97764.00
2023-03-15T00:50:50.845Z,97770.00
2023-03-15T00:51:00.940Z,97770.00
2023-03-15T00:51:10.986Z,97768.00
2023-03-15T00:51:20.987Z,97768.00
2023-03-15T00:51:30.996Z,97766.00
2023-03-15T00:51:41.021Z,97768.00
2023-03-15T00:51:51.062Z,97766.00
2023-03-15T00:52:01.061Z,97766.00
2023-03-15T00:52:11.059Z,97770.00
2023-03-15T00:52:21.206Z,97770.00
2023-03-15T00:52:31.222Z,97772.00
2023-03-15T00:52:41.235Z,97768.00
2023-03-15T00:52:51.496Z,97764.00
2023-03-15T00:53:01.526Z,97768.00
2023-03-15T00:53:11.562Z,97768.00
2023-03-15T00:53:21.567Z,97772.00
2023-03-15T00:53:31.567Z,97772.00
2023-03-15T00:53:41.573Z,97772.00
2023-03-15T00:53:51.588Z,97776.00
2023-03-15T00:54:01.627Z,97770.00
2023-03-15T00:54:11.620Z,97774.00
2023-03-15T00:54:21.746Z,97772.00
2023-03-15T00:54:32.007Z,97772.00
2023-03-15T00:54:42.018Z,97772.00
2023-03-15T00:54:52.132Z,97776.00
2023-03-15T00:55:02.397Z,97774.00
2023-03-15T00:55:12.432Z,97778.00
2023-03-15T00:55:22.570Z,97774.00
2023-03-15T00:55:32.813Z,97776.00
2023-03-15T00:55:42.936Z,97778.00
2023-03-15T00:55:52.937Z,97784.00
2023-03-15T00:56:03.210Z,97782.00
2023-03-15T00:56:13.214Z,97780.00
2023-03-15T00:56:23.335Z,97780.00
2023-03-15T00:56:33.611Z,97778.00
2023-03-15T00:56:43.628Z,97778.00
2023-03-15T00:56:53.641Z,97784.00
2023-03-15T00:57:03.644Z,97784.00
2023-03-15T00:57:13.654Z,97785.00
2023-03-15T00:57:23.810Z,97784.00
2023-03-15T00:57:33.807Z,97784.00
2023-03-15T00:57:43.843Z,97787.00
2023-03-15T00:57:53.891Z,97785.00
2023-03-15T00:58:03.910Z,97784.00
2023-03-15T00:58:14.211Z,97784.00
2023-03-15T00:58:25.890Z,97787.00
2023-03-15T00:58:34.284Z,97789.00
2023-03-15T00:58:44.401Z,97789.00
2023-03-15T00:58:54.397Z,97789.00
2023-03-15T00:59:04.534Z,97787.00
2023-03-15T00:59:14.547Z,97789.00
2023-03-15T00:59:24.551Z,97787.00
2023-03-15T00:59:34.560Z,97785.00
2023-03-15T00:59:44.588Z,97784.00
2023-03-15T00:59:54.588Z,97789.00
2023-03-15T01:00:04.593Z,97787.00
2023-03-15T01:00:14.610Z,97787.00
2023-03-15T01:00:24.897Z,97789.00
2023-03-15T01:00:34.674Z,97789.00
2023-03-15T01:00:44.792Z,97789.00
2023-03-15T01:00:54.798Z,97787.00
2023-03-15T01:01:04.802Z,97789.00
2023-03-15T01:01:15.076Z,97789.00
2023-03-15T01:01:25.139Z,97789.00
2023-03-15T01:01:35.168Z,97791.00
2023-03-15T01:01:45.241Z,97793.00
2023-03-15T01:01:55.187Z,97791.00
2023-03-15T01:02:05.368Z,97787.00
2023-03-15T01:02:15.293Z,97787.00
2023-03-15T01:02:25.424Z,97787.00
2023-03-15T01:02:35.488Z,97789.00
2023-03-15T01:02:45.575Z,97785.00
2023-03-15T01:02:55.713Z,97789.00
2023-03-15T01:03:05.764Z,97797.00
2023-03-15T01:03:15.773Z,97793.00
2023-03-15T01:03:25.701Z,97795.00
2023-03-15T01:03:37.029Z,97793.00
2023-03-15T01:03:45.906Z,97795.00
2023-03-15T01:03:55.900Z,97793.00
2023-03-15T01:04:06.294Z,97789.00
2023-03-15T01:04:16.290Z,97793.00
2023-03-15T01:04:26.296Z,97791.00
2023-03-15T01:04:36.325Z,97797.00
2023-03-15T01:04:46.341Z,97797.00
2023-03-15T01:04:56.357Z,97793.00
2023-03-15T01:05:06.357Z,97797.00
2023-03-15T01:05:16.357Z,97793.00
2023-03-15T01:05:26.384Z,97795.00
2023-03-15T01:05:36.376Z,97795.00
2023-03-15T01:05:46.375Z,97793.00
2023-03-15T01:05:56.384Z,97797.00
2023-03-15T01:06:06.387Z,97801.00
2023-03-15T01:06:16.397Z,97799.00
2023-03-15T01:06:26.432Z,97797.00
2023-03-15T01:06:36.428Z,97795.00
2023-03-15T01:06:46.448Z,97795.00
2023-03-15T01:06:56.465Z,97795.00
2023-03-15T01:07:06.463Z,97799.00
2023-03-15T01:07:16.462Z,97799.00
2023-03-15T01:07:26.585Z,97801.00
2023-03-15T01:07:36.592Z,97801.00
2023-03-15T01:07:46.600Z,97801.00
2023-03-15T01:07:56.599Z,97801.00
2023-03-15T01:08:06.864Z,97803.00
2023-03-15T01:08:16.875Z,97801.00
2023-03-15T01:08:26.891Z,97799.00
2023-03-15T01:08:36.964Z,97799.00
2023-03-15T01:08:47.095Z,97803.00
2023-03-15T01:08:57.368Z,97803.00
2023-03-15T01:09:07.099Z,97801.00
2023-03-15T01:09:17.119Z,97803.00
2023-03-15T01:09:27.126Z,97803.00
2023-03-15T01:09:37.127Z,97801.00
2023-03-15T01:09:48.539Z,97805.00
2023-03-15T01:09:57.383Z,97809.00
2023-03-15T01:10:07.393Z,97807.00
2023-03-15T01:10:17.492Z,97807.00
2023-03-15T01:10:27.499Z,97803.00
2023-03-15T01:10:37.522Z,97801.00
2023-03-15T01:10:47.534Z,97803.00
2023-03-15T01:10:57.542Z,97801.00
2023-03-15T01:11:07.551Z,97809.00
2023-03-15T01:11:17.572Z,97823.00
2023-03-15T01:11:27.592Z,97817.00
2023-03-15T01:11:37.606Z,97817.00
2023-03-15T01:11:47.621Z,97815.00
2023-03-15T01:11:57.636Z,97815.00
2023-03-15T01:12:07.646Z,97811.00
2023-03-15T01:12:17.649Z,97807.00
2023-03-15T01:12:27.700Z,97807.00
2023-03-15T01:12:37.718Z,97811.00
2023-03-15T01:12:47.715Z,97813.00
2023-03-15T01:12:57.710Z,97811.00
2023-03-15T01:13:07.743Z,97813.00
2023-03-15T01:13:17.765Z,97811.00
2023-03-15T01:13:27.782Z,97811.00
2023-03-15T01:13:37.791Z,97813.00
2023-03-15T01:13:47.812Z,97811.00
2023-03-15T01:13:57.822Z,97815.00
2023-03-15T01:14:07.826Z,97813.00
2023-03-15T01:14:17.836Z,97811.00
2023-03-15T01:14:27.849Z,97813.00
2023-03-15T01:14:37.841Z,97811.00
2023-03-15T01:14:47.963Z,97811.00
2023-03-15T01:14:58.222Z,97815.00
2023-03-15T01:15:08.346Z,97815.00
2023-03-15T01:15:18.352Z,97815.00
2023-03-15T01:15:28.598Z,97819.00
2023-03-15T01:15:38.616Z,97819.00
2023-03-15T01:15:48.691Z,97817.00
2023-03-15T01:15:58.720Z,97817.00
2023-03-15T01:16:08.782Z,97815.00
2023-03-15T01:16:18.851Z,97817.00
2023-03-15T01:16:29.009Z,97815.00
2023-03-15T01:16:38.909Z,97819.00
2023-03-15T01:16:48.915Z,97817.00
2023-03-15T01:16:58.949Z,97821.00
2023-03-15T01:17:09.192Z,97819.00
2023-03-15T01:17:19.219Z,97819.00
2023-03-15T01:17:29.224Z,97817.00
2023-03-15T01:17:39.222Z,97815.00
2023-03-15T01:17:49.246Z,97817.00
2023-03-15T01:17:59.244Z,97817.00
2023-03-15T01:18:09.274Z,97817.00
2023-03-15T01:18:19.273Z,97815.00
2023-03-15T01:18:29.278Z,97819.00
2023-03-15T01:18:39.289Z,97821.00
2023-03-15T01:18:49.294Z,97819.00
2023-03-15T01:18:59.319Z,97819.00
2023-03-15T01:19:09.314Z,97819.00
2023-03-15T01:19:19.434Z,97821.00
2023-03-15T01:19:29.456Z,97821.00
2023-03-15T01:19:39.488Z,97817.00
2023-03-15T01:19:49.469Z,97821.00
2023-03-15T01:19:59.732Z,97819.00
2023-03-15T01:20:09.727Z,97819.00
2023-03-15T01:20:19.735Z,97819.00
2023-03-15T01:20:29.748Z,97821.00
2023-03-15T01:20:39.753Z,97821.00
2023-03-15T01:20:49.771Z,97823.00
2023-03-15T01:20:59.789Z,97825.00
2023-03-15T01:21:09.788Z,97823.00
2023-03-15T01:21:19.825Z,97825.00
2023-03-15T01:21:29.816Z,97825.00
2023-03-15T01:21:39.809Z,97823.00
2023-03-15T01:21:49.832Z,97823.00
2023-03-15T01:21:59.825Z,97823.00
2023-03-15T01:22:09.835Z,97823.00
2023-03-15T01:22:19.841Z,97825.00
2023-03-15T01:22:29.864Z,97829.00
2023-03-15T01:22:39.857Z,97827.00
2023-03-15T01:22:50.242Z,97825.00
2023-03-15T01:23:00.253Z,97827.00
2023-03-15T01:23:10.272Z,97825.00
2023-03-15T01:23:20.269Z,97825.00
2023-03-15T01:23:30.285Z,97825.00
2023-03-15T01:23:40.299Z,97825.00
2023-03-15T01:23:50.301Z,97827.00
2023-03-15T01:24:00.308Z,97827.00
2023-03-15T01:24:10.314Z,97825.00
2023-03-15T01:24:20.320Z,97823.00
2023-03-15T01:24:30.321Z,97825.00
2023-03-15T01:24:40.353Z,97825.00
2023-03-15T01:24:50.357Z,97825.00
2023-03-15T01:25:00.354Z,97825.00
2023-03-15T01:25:10.374Z,97825.00
2023-03-15T01:25:20.393Z,97827.00
2023-03-15T01:25:30.395Z,97831.00
2023-03-15T01:25:40.408Z,97831.00
2023-03-15T01:25:50.413Z,97831.00
2023-03-15T01:26:00.431Z,97832.00
2023-03-15T01:26:10.443Z,97836.00
2023-03-15T01:26:20.449Z,97838.00
2023-03-15T01:26:30.456Z,97832.00
2023-03-15T01:26:40.483Z,97831.00
2023-03-15T01:26:50.481Z,97834.00
2023-03-15T01:27:00.487Z,97831.00
2023-03-15T01:27:10.490Z,97829.00
2023-03-15T01:27:20.507Z,97829.00
2023-03-15T01:27:30.512Z,97827.00
2023-03-15T01:27:40.532Z,97827.00
2023-03-15T01:27:50.638Z,97829.00
2023-03-15T01:28:00.912Z,97827.00
2023-03-15T01:28:10.912Z,97832.00
2023-03-15T01:28:20.916Z,97831.00
2023-03-15T01:28:30.937Z,97834.00
2023-03-15T01:28:40.925Z,97831.00
2023-03-15T01:28:50.947Z,97829.00
2023-03-15T01:29:00.939Z,97829.00
2023-03-15T01:29:10.948Z,97827.00
2023-03-15T01:29:20.957Z,97825.00
2023-03-15T01:29:30.965Z,97831.00
2023-03-15T01:29:40.988Z,97832.00
2023-03-15T01:29:50.991Z,97832.00
2023-03-15T01:30:00.994Z,97829.00
2023-03-15T01:30:10.989Z,97831.00
2023-03-15T01:30:21.005Z,97832.00
2023-03-15T01:30:31.005Z,97834.00
2023-03-15T01:30:41.006Z,97838.00
2023-03-15T01:30:51.013Z,97834.00
2023-03-15T01:31:01.092Z,97838.00
2023-03-15T01:31:11.165Z,97834.00
2023-03-15T01:31:21.178Z,97834.00
2023-03-15T01:31:31.266Z,97834.00
2023-03-15T01:31:41.345Z,97836.00
2023-03-15T01:31:51.438Z,97832.00
2023-03-15T01:32:01.695Z,97834.00
2023-03-15T01:32:11.701Z,97834.00
2023-03-15T01:32:21.758Z,97834.00
2023-03-15T01:32:31.776Z,97834.00
2023-03-15T01:32:41.828Z,97836.00
2023-03-15T01:32:51.866Z,97838.00
2023-03-15T01:33:01.900Z,97840.00
2023-03-15T01:33:11.912Z,97840.00
2023-03-15T01:33:21.924Z,97838.00
2023-03-15T01:33:31.914Z,97834.00
2023-03-15T01:33:42.292Z,97834.00
2023-03-15T01:33:52.292Z,97834.00
2023-03-15T01:34:02.313Z,97834.00
2023-03-15T01:34:12.356Z,97836.00
2023-03-15T01:34:22.365Z,97836.00
2023-03-15T01:34:32.373Z,97831.00
2023-03-15T01:34:42.401Z,97832.00
2023-03-15T01:34:52.388Z,97834.00
2023-03-15T01:35:02.400Z,97834.00
2023-03-15T01:35:12.404Z,97844.00
2023-03-15T01:35:22.418Z,97836.00
2023-03-15T01:35:32.458Z,97836.00
2023-03-15T01:35:42.539Z,97836.00
2023-03-15T01:35:52.506Z,97840.00
2023-03-15T01:36:02.625Z,97840.00
2023-03-15T01:36:12.522Z,97838.00
2023-03-15T01:36:22.524Z,97838.00
2023-03-15T01:36:32.903Z,97840.00
2023-03-15T01:36:42.894Z,97842.00
2023-03-15T01:36:52.905Z,97842.00
2023-03-15T01:37:02.943Z,97838.00
2023-03-15T01:37:12.962Z,97840.00
2023-03-15T01:37:22.953Z,97840.00
2023-03-15T01:37:32.971Z,97838.00
2023-03-15T01:37:43.016Z,97838.00
2023-03-15T01:37:53.041Z,97840.00
2023-03-15T01:38:03.048Z,97842.00
2023-03-15T01:38:13.060Z,97846.00
2023-03-15T01:38:23.083Z,97844.00
2023-03-15T01:38:33.072Z,97844.00
2023-03-15T01:38:43.075Z,97842.00
2023-03-15T01:38:53.107Z,97838.00
2023-03-15T01:39:03.173Z,97840.00
2023-03-15T01:39:13.168Z,97840.00
2023-03-15T01:39:23.168Z,97842.00
2023-03-15T01:39:33.175Z,97842.00
2023-03-15T01:39:43.177Z,97844.00
2023-03-15T01:39:53.187Z,97844.00
2023-03-15T01:40:03.297Z,97844.00
2023-03-15T01:40:13.305Z,97844.00
2023-03-15T01:40:23.429Z,97844.00
2023-03-15T01:40:33.563Z,97848.00
2023-03-15T01:40:43.567Z,97852.00
2023-03-15T01:40:53.570Z,97850.00
2023-03-15T01:41:03.951Z,97856.00
2023-03-15T01:41:14.013Z,97850.00
2023-03-15T01:41:24.155Z,97848.00
2023-03-15T01:41:34.406Z,97846.00
2023-03-15T01:41:44.575Z,97846.00
2023-03-15T01:41:54.568Z,97846.00
2023-03-15T01:42:04.840Z,97846.00
2023-03-15T01:42:14.850Z,97846.00
2023-03-15T01:42:24.936Z,97848.00
2023-03-15T01:42:34.945Z,97848.00
2023-03-15T01:42:44.957Z,97850.00
2023-03-15T01:42:54.969Z,97848.00
2023-03-15T01:43:04.971Z,97860.00
2023-03-15T01:43:14.988Z,97858.00
2023-03-15T01:43:24.990Z,97848.00
2023-03-15T01:43:35.001Z,97848.00
2023-03-15T01:43:45.387Z,97848.00
2023-03-15T01:43:55.402Z,97856.00
2023-03-15T01:44:05.399Z,97858.00
2023-03-15T01:44:15.418Z,97850.00
2023-03-15T01:44:25.424Z,97856.00
2023-03-15T01:44:35.448Z,97854.00
2023-03-15T01:44:45.497Z,97850.00
2023-03-15T01:44:55.505Z,97852.00
2023-03-15T01:45:05.636Z,97848.00
2023-03-15T01:45:15.630Z,97850.00
2023-03-15T01:45:25.924Z,97852.00
2023-03-15T01:45:35.924Z,97852.00
2023-03-15T01:45:46.049Z,97850.00
2023-03-15T01:45:56.304Z,97848.00
2023-03-15T01:46:06.317Z,97848.00
2023-03-15T01:46:16.383Z,97848.00
2023-03-15T01:46:26.508Z,97848.00
2023-03-15T01:46:36.491Z,97850.00
2023-03-15T01:46:46.516Z,97850.00
2023-03-15T01:46:56.617Z,97850.00
2023-03-15T01:47:06.821Z,97850.00
2023-03-15T01:47:16.821Z,97854.00
2023-03-15T01:47:26.952Z,97852.00
2023-03-15T01:47:37.230Z,97856.00
2023-03-15T01:47:47.353Z,97850.00
2023-03-15T01:47:57.364Z,97850.00
2023-03-15T01:48:07.620Z,97850.00
2023-03-15T01:48:17.627Z,97848.00
2023-03-15T01:48:27.739Z,97850.00
2023-03-15T01:48:38.010Z,97854.00
2023-03-15T01:48:48.119Z,97856.00
2023-03-15T01:48:58.128Z,97850.00
2023-03-15T01:49:08.396Z,97856.00
2023-03-15T01:49:18.389Z,97856.00
2023-03-15T01:49:28.405Z,97862.00
2023-03-15T01:49:38.388Z,97854.00
2023-03-15T01:49:48.420Z,97844.00
2023-03-15T01:49:58.406Z,97852.00
2023-03-15T01:50:08.429Z,97854.00
2023-03-15T01:50:18.424Z,97864.00
2023-03-15T01:50:28.545Z,97862.00
2023-03-15T01:50:38.548Z,97860.00
2023-03-15T01:50:48.812Z,97856.00
2023-03-15T01:50:58.823Z,97856.00
2023-03-15T01:51:08.825Z,97854.00
2023-03-15T01:51:18.831Z,97856.00
2023-03-15T01:51:28.845Z,97854.00
2023-03-15T01:51:38.861Z,97854.00
2023-03-15T01:51:48.856Z,97860.00
2023-03-15T01:51:58.876Z,97856.00
2023-03-15T01:52:08.880Z,97860.00
2023-03-15T01:52:18.880Z,97858.00
2023-03-15T01:52:28.884Z,97858.00
2023-03-15T01:52:38.890Z,97850.00
2023-03-15T01:52:49.010Z,97850.00
2023-03-15T01:52:59.020Z,97856.00
2023-03-15T01:53:09.040Z,97862.00
2023-03-15T01:53:19.045Z,97866.00
2023-03-15T01:53:29.053Z,97860.00
2023-03-15T01:53:39.319Z,97854.00
2023-03-15T01:53:49.319Z,97850.00
2023-03-15T01:53:59.323Z,97848.00
2023-03-15T01:54:09.340Z,97850.00
2023-03-15T01:54:19.343Z,97854.00
2023-03-15T01:54:29.464Z,97852.00
2023-03-15T01:54:39.504Z,97854.00
2023-03-15T01:54:49.506Z,97856.00
2023-03-15T01:54:59.504Z,97856.00
2023-03-15T01:55:09.636Z,97858.00
2023-03-15T01:55:19.791Z,97852.00
2023-03-15T01:55:29.798Z,97850.00
2023-03-15T01:55:39.800Z,97846.00
2023-03-15T01:55:49.792Z,97850.00
2023-03-15T01:55:59.811Z,97848.00
2023-03-15T01:56:09.813Z,97852.00
2023-03-15T01:56:19.823Z,97854.00
2023-03-15T01:56:29.836Z,97856.00
2023-03-15T01:56:39.861Z,97860.00
2023-03-15T01:56:49.851Z,97858.00
2023-03-15T01:56:59.862Z,97866.00
2023-03-15T01:57:09.869Z,97862.00
2023-03-15T01:57:19.872Z,97854.00
2023-03-15T01:57:29.885Z,97860.00
2023-03-15T01:57:39.906Z,97852.00
2023-03-15T01:57:49.921Z,97852.00
2023-03-15T01:57:59.913Z,97852.00